sensor_id;sensor_type;location;lat;lon;timestamp;pressure;altitude;pressure_sealevel;temperature;humidity
59315;BME280;46521;50.160;20.802;2023-06-14T00:15:46;99544.01;;;13.80;71.55
59315;BME280;46521;50.160;20.802;2023-06-14T00:25:48;99534.91;;;13.68;71.98
59315;BME280;46521;50.160;20.802;2023-06-14T00:35:50;99526.18;;;13.52;72.04
59315;BME280;46521;50.160;20.802;2023-06-14T00:45:51;99529.87;;;13.51;72.02
59315;BME280;46521;50.160;20.802;2023-06-14T00:55:53;99525.31;;;13.45;72.48
59315;BME280;46521;50.160;20.802;2023-06-14T01:16:30;99516.06;;;13.41;72.92
59315;BME280;46521;50.160;20.802;2023-06-14T01:26:33;99496.23;;;13.37;72.57
59315;BME280;46521;50.160;20.802;2023-06-14T01:36:36;99499.88;;;13.36;73.01
59315;BME280;46521;50.160;20.802;2023-06-14T01:46:42;99498.88;;;13.37;73.55
59315;BME280;46521;50.160;20.802;2023-06-14T01:56:44;99495.28;;;13.45;73.03
59315;BME280;46521;50.160;20.802;2023-06-14T02:06:45;99501.02;;;13.48;73.32
59315;BME280;46521;50.160;20.802;2023-06-14T02:16:47;99499.18;;;13.49;73.33
59315;BME280;46521;50.160;20.802;2023-06-14T02:26:50;99499.61;;;13.52;73.12
59315;BME280;46521;50.160;20.802;2023-06-14T02:36:51;99501.64;;;13.50;73.21
59315;BME280;46521;50.160;20.802;2023-06-14T02:46:54;99497.36;;;13.49;73.08
59315;BME280;46521;50.160;20.802;2023-06-14T02:56:56;99491.20;;;13.49;73.30
59315;BME280;46521;50.160;20.802;2023-06-14T03:06:57;99506.95;;;13.50;73.64
59315;BME280;46521;50.160;20.802;2023-06-14T03:16:59;99504.92;;;13.52;73.75
59315;BME280;46521;50.160;20.802;2023-06-14T03:27:01;99506.58;;;13.54;73.65
59315;BME280;46521;50.160;20.802;2023-06-14T03:37:03;99501.27;;;13.54;74.05
59315;BME280;46521;50.160;20.802;2023-06-14T03:47:05;99509.86;;;13.56;73.67
59315;BME280;46521;50.160;20.802;2023-06-14T03:57:07;99514.17;;;13.57;74.35
59315;BME280;46521;50.160;20.802;2023-06-14T04:07:09;99517.83;;;13.56;74.16
59315;BME280;46521;50.160;20.802;2023-06-14T04:17:10;99523.80;;;13.58;73.98
59315;BME280;46521;50.160;20.802;2023-06-14T04:27:12;99522.95;;;13.57;74.54
59315;BME280;46521;50.160;20.802;2023-06-14T04:37:15;99526.18;;;13.52;74.18
59315;BME280;46521;50.160;20.802;2023-06-14T04:47:18;99522.90;;;13.50;74.62
59315;BME280;46521;50.160;20.802;2023-06-14T04:57:20;99527.40;;;13.50;74.40
59315;BME280;46521;50.160;20.802;2023-06-14T05:07:23;99534.48;;;13.64;74.73
59315;BME280;46521;50.160;20.802;2023-06-14T05:17:24;99546.19;;;13.70;74.67
59315;BME280;46521;50.160;20.802;2023-06-14T05:27:28;99540.22;;;13.68;74.78
59315;BME280;46521;50.160;20.802;2023-06-14T05:37:30;99554.92;;;13.64;74.76
59315;BME280;46521;50.160;20.802;2023-06-14T05:47:32;99553.78;;;13.73;74.73
59315;BME280;46521;50.160;20.802;2023-06-14T05:57:33;99547.98;;;13.91;75.14
59315;BME280;46521;50.160;20.802;2023-06-14T06:07:35;99559.70;;;13.97;75.32
59315;BME280;46521;50.160;20.802;2023-06-14T06:17:37;99559.94;;;14.02;74.84
59315;BME280;46521;50.160;20.802;2023-06-14T06:27:38;99547.33;;;14.11;75.30
59315;BME280;46521;50.160;20.802;2023-06-14T06:37:42;99568.03;;;14.15;75.14
59315;BME280;46521;50.160;20.802;2023-06-14T06:47:43;99577.02;;;14.14;75.10
59315;BME280;46521;50.160;20.802;2023-06-14T06:57:44;99579.52;;;14.22;75.55
59315;BME280;46521;50.160;20.802;2023-06-14T07:07:46;99586.57;;;14.37;75.55
59315;BME280;46521;50.160;20.802;2023-06-14T07:17:48;99601.11;;;14.63;75.61
59315;BME280;46521;50.160;20.802;2023-06-14T07:27:49;99586.95;;;14.97;75.43
59315;BME280;46521;50.160;20.802;2023-06-14T07:37:51;99602.47;;;15.48;75.34
59315;BME280;46521;50.160;20.802;2023-06-14T07:47:52;99602.91;;;15.52;74.65
59315;BME280;46521;50.160;20.802;2023-06-14T07:57:54;99608.59;;;15.36;74.41
59315;BME280;46521;50.160;20.802;2023-06-14T08:07:55;99602.84;;;15.25;74.72
59315;BME280;46521;50.160;20.802;2023-06-14T08:17:57;99605.92;;;15.36;75.08
59315;BME280;46521;50.160;20.802;2023-06-14T08:28:00;99588.34;;;15.48;74.97
59315;BME280;46521;50.160;20.802;2023-06-14T08:38:02;99601.10;;;15.66;75.04
59315;BME280;46521;50.160;20.802;2023-06-14T08:48:04;99605.45;;;15.80;75.27
59315;BME280;46521;50.160;20.802;2023-06-14T08:58:06;99600.53;;;16.11;74.68
59315;BME280;46521;50.160;20.802;2023-06-14T09:08:10;99611.60;;;16.34;74.90
59315;BME280;46521;50.160;20.802;2023-06-14T09:18:12;99612.80;;;16.65;74.87
59315;BME280;46521;50.160;20.802;2023-06-14T09:28:13;99611.15;;;16.64;73.53
59315;BME280;46521;50.160;20.802;2023-06-14T09:38:15;99610.95;;;16.72;73.68
59315;BME280;46521;50.160;20.802;2023-06-14T09:48:16;99607.69;;;16.57;73.33
59315;BME280;46521;50.160;20.802;2023-06-14T09:58:20;99605.05;;;16.37;73.37
59315;BME280;46521;50.160;20.802;2023-06-14T10:08:25;99603.63;;;16.21;73.32
59315;BME280;46521;50.160;20.802;2023-06-14T10:28:56;99604.02;;;16.31;73.08
59315;BME280;46521;50.160;20.802;2023-06-14T10:39:06;99611.41;;;16.43;73.40
59315;BME280;46521;50.160;20.802;2023-06-14T10:49:09;99606.83;;;16.70;73.91
59315;BME280;46521;50.160;20.802;2023-06-14T10:59:10;99615.08;;;16.48;73.05
59315;BME280;46521;50.160;20.802;2023-06-14T11:09:27;99608.94;;;16.14;73.19
59315;BME280;46521;50.160;20.802;2023-06-14T11:19:37;99609.97;;;16.27;73.83
59315;BME280;46521;50.160;20.802;2023-06-14T11:29:38;99613.25;;;16.22;73.47
59315;BME280;46521;50.160;20.802;2023-06-14T11:39:43;99622.47;;;15.79;73.48
59315;BME280;46521;50.160;20.802;2023-06-14T11:49:46;99619.84;;;15.24;74.37
59315;BME280;46521;50.160;20.802;2023-06-14T11:59:48;99607.18;;;15.40;74.86
59315;BME280;46521;50.160;20.802;2023-06-14T12:19:54;99575.15;;;16.80;74.33
59315;BME280;46521;50.160;20.802;2023-06-14T12:30:00;99589.99;;;17.67;73.65
59315;BME280;46521;50.160;20.802;2023-06-14T12:40:02;99603.04;;;18.39;71.81
59315;BME280;46521;50.160;20.802;2023-06-14T12:50:07;99606.69;;;17.94;71.76
59315;BME280;46521;50.160;20.802;2023-06-14T13:00:09;99606.75;;;17.03;71.13
59315;BME280;46521;50.160;20.802;2023-06-14T13:10:11;99601.11;;;16.53;71.86
59315;BME280;46521;50.160;20.802;2023-06-14T13:20:13;99609.98;;;16.13;72.11
59315;BME280;46521;50.160;20.802;2023-06-14T13:30:14;99600.32;;;15.92;72.63
59315;BME280;46521;50.160;20.802;2023-06-14T13:40:16;99597.47;;;16.00;72.65
59315;BME280;46521;50.160;20.802;2023-06-14T13:50:17;99592.11;;;15.94;71.49
59315;BME280;46521;50.160;20.802;2023-06-14T14:00:19;99584.73;;;16.09;71.89
59315;BME280;46521;50.160;20.802;2023-06-14T14:10:21;99580.63;;;16.33;71.82
59315;BME280;46521;50.160;20.802;2023-06-14T14:20:23;99586.70;;;16.67;72.01
59315;BME280;46521;50.160;20.802;2023-06-14T14:30:24;99569.89;;;17.19;72.00
59315;BME280;46521;50.160;20.802;2023-06-14T14:40:27;99566.11;;;17.33;72.00
59315;BME280;46521;50.160;20.802;2023-06-14T14:50:28;99567.00;;;17.59;71.71
59315;BME280;46521;50.160;20.802;2023-06-14T15:00:30;99566.81;;;17.86;71.51
59315;BME280;46521;50.160;20.802;2023-06-14T15:10:32;99577.84;;;18.21;70.99
59315;BME280;46521;50.160;20.802;2023-06-14T15:20:33;99576.45;;;18.18;70.61
59315;BME280;46521;50.160;20.802;2023-06-14T15:30:35;99562.19;;;18.25;69.65
59315;BME280;46521;50.160;20.802;2023-06-14T15:40:36;99569.44;;;18.17;69.65
59315;BME280;46521;50.160;20.802;2023-06-14T15:50:38;99558.15;;;18.15;68.92
59315;BME280;46521;50.160;20.802;2023-06-14T16:00:39;99555.03;;;18.18;68.75
59315;BME280;46521;50.160;20.802;2023-06-14T16:10:41;99557.59;;;18.07;69.15
59315;BME280;46521;50.160;20.802;2023-06-14T16:20:42;99560.77;;;17.97;69.01
59315;BME280;46521;50.160;20.802;2023-06-14T16:30:44;99560.30;;;17.75;69.22
59315;BME280;46521;50.160;20.802;2023-06-14T16:40:46;99553.95;;;18.01;69.34
59315;BME280;46521;50.160;20.802;2023-06-14T16:50:47;99565.16;;;17.84;68.33
59315;BME280;46521;50.160;20.802;2023-06-14T17:00:49;99586.99;;;17.81;68.81
59315;BME280;46521;50.160;20.802;2023-06-14T17:10:52;99593.56;;;17.86;68.18
59315;BME280;46521;50.160;20.802;2023-06-14T17:20:54;99600.20;;;17.76;68.18
59315;BME280;46521;50.160;20.802;2023-06-14T17:30:55;99602.20;;;17.56;67.89
59315;BME280;46521;50.160;20.802;2023-06-14T17:40:57;99600.91;;;17.26;67.74
59315;BME280;46521;50.160;20.802;2023-06-14T18:01:02;99607.63;;;16.84;68.55
59315;BME280;46521;50.160;20.802;2023-06-14T18:11:04;99608.64;;;16.83;69.59
59315;BME280;46521;50.160;20.802;2023-06-14T18:21:05;99612.19;;;16.56;69.23
59315;BME280;46521;50.160;20.802;2023-06-14T18:31:07;99619.63;;;16.21;70.24
59315;BME280;46521;50.160;20.802;2023-06-14T18:41:08;99637.27;;;16.22;70.83
59315;BME280;46521;50.160;20.802;2023-06-14T18:51:10;99636.87;;;16.12;71.34
59315;BME280;46521;50.160;20.802;2023-06-14T19:01:11;99656.73;;;15.89;71.30
59315;BME280;46521;50.160;20.802;2023-06-14T19:11:13;99659.84;;;15.93;71.78
59315;BME280;46521;50.160;20.802;2023-06-14T19:21:15;99670.17;;;15.61;72.11
59315;BME280;46521;50.160;20.802;2023-06-14T19:31:16;99674.99;;;15.30;72.26
59315;BME280;46521;50.160;20.802;2023-06-14T19:41:19;99669.48;;;15.39;72.63
59315;BME280;46521;50.160;20.802;2023-06-14T19:51:20;99690.28;;;15.15;72.93
59315;BME280;46521;50.160;20.802;2023-06-14T20:01:22;99682.38;;;14.93;73.61
59315;BME280;46521;50.160;20.802;2023-06-14T20:11:24;99692.56;;;14.83;73.39
59315;BME280;46521;50.160;20.802;2023-06-14T20:21:27;99695.27;;;14.62;73.43
59315;BME280;46521;50.160;20.802;2023-06-14T20:31:30;99700.86;;;14.45;73.85
59315;BME280;46521;50.160;20.802;2023-06-14T20:41:31;99697.56;;;14.21;74.00
59315;BME280;46521;50.160;20.802;2023-06-14T20:51:33;99703.91;;;14.20;74.24
59315;BME280;46521;50.160;20.802;2023-06-14T21:01:34;99697.20;;;14.03;73.99
59315;BME280;46521;50.160;20.802;2023-06-14T21:11:36;99693.27;;;13.99;74.18
59315;BME280;46521;50.160;20.802;2023-06-14T21:21:38;99696.83;;;14.06;74.08
59315;BME280;46521;50.160;20.802;2023-06-14T21:31:39;99705.03;;;13.90;74.06
59315;BME280;46521;50.160;20.802;2023-06-14T21:41:41;99697.55;;;13.78;74.01
59315;BME280;46521;50.160;20.802;2023-06-14T21:51:42;99692.73;;;13.67;74.14
59315;BME280;46521;50.160;20.802;2023-06-14T22:01:45;99687.63;;;13.50;73.69
59315;BME280;46521;50.160;20.802;2023-06-14T22:11:46;99686.53;;;13.30;74.32
59315;BME280;46521;50.160;20.802;2023-06-14T22:21:50;99680.77;;;13.26;74.33
59315;BME280;46521;50.160;20.802;2023-06-14T22:31:54;99684.72;;;13.15;73.99
59315;BME280;46521;50.160;20.802;2023-06-14T22:41:56;99687.55;;;13.14;74.63
59315;BME280;46521;50.160;20.802;2023-06-14T22:51:58;99680.50;;;13.06;74.21
59315;BME280;46521;50.160;20.802;2023-06-14T23:02:02;99679.20;;;13.02;74.48
59315;BME280;46521;50.160;20.802;2023-06-14T23:12:06;99672.44;;;13.14;74.87
59315;BME280;46521;50.160;20.802;2023-06-14T23:22:13;99668.86;;;13.22;75.38
59315;BME280;46521;50.160;20.802;2023-06-14T23:32:17;99683.79;;;13.08;75.11
59315;BME280;46521;50.160;20.802;2023-06-14T23:42:20;99676.29;;;12.97;75.64
